sensor_id;sensor_type;location;lat;lon;timestamp;P1;durP1;ratioP1;P2;durP2;ratioP2
13560;SDS011;6852;51.686;5.314;2022-09-13T00:01:27;6.60;;;4.53;;
13560;SDS011;6852;51.686;5.314;2022-09-13T00:03:55;5.50;;;4.47;;
13560;SDS011;6852;51.686;5.314;2022-09-13T00:06:22;6.00;;;4.27;;
13560;SDS011;6852;51.686;5.314;2022-09-13T00:08:49;7.90;;;4.30;;
13560;SDS011;6852;51.686;5.314;2022-09-13T00:11:17;4.60;;;4.20;;
13560;SDS011;6852;51.686;5.314;2022-09-13T00:13:46;4.90;;;4.50;;
13560;SDS011;6852;51.686;5.314;2022-09-13T00:16:14;5.67;;;4.43;;
13560;SDS011;6852;51.686;5.314;2022-09-13T00:18:42;4.50;;;3.93;;
13560;SDS011;6852;51.686;5.314;2022-09-13T00:21:10;6.30;;;4.80;;
13560;SDS011;6852;51.686;5.314;2022-09-13T00:23:39;7.23;;;4.53;;
13560;SDS011;6852;51.686;5.314;2022-09-13T00:26:10;5.67;;;4.70;;
13560;SDS011;6852;51.686;5.314;2022-09-13T00:28:38;7.93;;;4.60;;
13560;SDS011;6852;51.686;5.314;2022-09-13T00:31:07;5.67;;;4.57;;
13560;SDS011;6852;51.686;5.314;2022-09-13T00:33:34;5.87;;;4.70;;
13560;SDS011;6852;51.686;5.314;2022-09-13T00:36:05;6.57;;;4.33;;
13560;SDS011;6852;51.686;5.314;2022-09-13T00:38:37;4.80;;;4.13;;
13560;SDS011;6852;51.686;5.314;2022-09-13T00:41:06;5.63;;;5.03;;
13560;SDS011;6852;51.686;5.314;2022-09-13T00:43:49;8.43;;;4.90;;
13560;SDS011;6852;51.686;5.314;2022-09-13T00:46:23;8.40;;;4.63;;
13560;SDS011;6852;51.686;5.314;2022-09-13T00:48:54;6.13;;;5.33;;
13560;SDS011;6852;51.686;5.314;2022-09-13T00:51:26;6.03;;;5.43;;
13560;SDS011;6852;51.686;5.314;2022-09-13T00:53:54;8.40;;;5.20;;
13560;SDS011;6852;51.686;5.314;2022-09-13T00:59:26;7.27;;;5.17;;
13560;SDS011;6852;51.686;5.314;2022-09-13T01:05:07;6.00;;;5.20;;
13560;SDS011;6852;51.686;5.314;2022-09-13T01:07:34;6.70;;;5.57;;
13560;SDS011;6852;51.686;5.314;2022-09-13T01:10:02;5.87;;;5.27;;
13560;SDS011;6852;51.686;5.314;2022-09-13T01:12:46;6.17;;;5.57;;
13560;SDS011;6852;51.686;5.314;2022-09-13T01:15:22;8.63;;;6.10;;
13560;SDS011;6852;51.686;5.314;2022-09-13T01:17:49;8.20;;;5.20;;
13560;SDS011;6852;51.686;5.314;2022-09-13T01:20:19;6.43;;;5.70;;
13560;SDS011;6852;51.686;5.314;2022-09-13T01:33:48;9.27;;;6.73;;
13560;SDS011;6852;51.686;5.314;2022-09-13T01:36:43;6.00;;;5.40;;
13560;SDS011;6852;51.686;5.314;2022-09-13T01:39:47;8.10;;;5.60;;
13560;SDS011;6852;51.686;5.314;2022-09-13T01:42:55;8.40;;;5.53;;
13560;SDS011;6852;51.686;5.314;2022-09-13T01:45:59;8.93;;;6.00;;
13560;SDS011;6852;51.686;5.314;2022-09-13T01:51:53;8.20;;;5.70;;
13560;SDS011;6852;51.686;5.314;2022-09-13T01:57:40;6.73;;;5.20;;
13560;SDS011;6852;51.686;5.314;2022-09-13T02:00:15;10.27;;;5.70;;
13560;SDS011;6852;51.686;5.314;2022-09-13T02:02:45;8.17;;;5.63;;
13560;SDS011;6852;51.686;5.314;2022-09-13T02:05:32;6.63;;;5.90;;
13560;SDS011;6852;51.686;5.314;2022-09-13T02:08:12;7.03;;;5.43;;
13560;SDS011;6852;51.686;5.314;2022-09-13T02:10:45;6.07;;;5.57;;
13560;SDS011;6852;51.686;5.314;2022-09-13T02:13:19;8.37;;;5.30;;
13560;SDS011;6852;51.686;5.314;2022-09-13T02:15:49;7.77;;;6.50;;
13560;SDS011;6852;51.686;5.314;2022-09-13T02:18:32;5.90;;;5.33;;
13560;SDS011;6852;51.686;5.314;2022-09-13T02:21:06;7.37;;;5.80;;
13560;SDS011;6852;51.686;5.314;2022-09-13T02:23:51;6.93;;;5.83;;
13560;SDS011;6852;51.686;5.314;2022-09-13T02:26:21;7.97;;;6.53;;
13560;SDS011;6852;51.686;5.314;2022-09-13T02:28:51;11.33;;;6.77;;
13560;SDS011;6852;51.686;5.314;2022-09-13T02:31:40;8.67;;;7.13;;
13560;SDS011;6852;51.686;5.314;2022-09-13T02:34:20;8.23;;;6.10;;
13560;SDS011;6852;51.686;5.314;2022-09-13T02:36:49;9.17;;;5.93;;
13560;SDS011;6852;51.686;5.314;2022-09-13T02:39:40;8.47;;;6.03;;
13560;SDS011;6852;51.686;5.314;2022-09-13T02:42:21;7.77;;;5.90;;
13560;SDS011;6852;51.686;5.314;2022-09-13T02:44:52;6.73;;;6.03;;
13560;SDS011;6852;51.686;5.314;2022-09-13T02:47:42;6.63;;;5.57;;
13560;SDS011;6852;51.686;5.314;2022-09-13T02:51:11;9.00;;;6.10;;
13560;SDS011;6852;51.686;5.314;2022-09-13T02:57:35;10.30;;;6.30;;
13560;SDS011;6852;51.686;5.314;2022-09-13T03:00:39;7.37;;;6.27;;
13560;SDS011;6852;51.686;5.314;2022-09-13T03:03:23;8.27;;;5.70;;
13560;SDS011;6852;51.686;5.314;2022-09-13T03:05:56;7.40;;;6.40;;
13560;SDS011;6852;51.686;5.314;2022-09-13T03:08:41;7.83;;;6.30;;
13560;SDS011;6852;51.686;5.314;2022-09-13T03:11:31;6.87;;;6.17;;
13560;SDS011;6852;51.686;5.314;2022-09-13T03:17:29;12.57;;;7.07;;
13560;SDS011;6852;51.686;5.314;2022-09-13T03:27:10;8.33;;;6.90;;
13560;SDS011;6852;51.686;5.314;2022-09-13T03:30:00;11.83;;;7.73;;
13560;SDS011;6852;51.686;5.314;2022-09-13T03:32:49;8.60;;;6.87;;
13560;SDS011;6852;51.686;5.314;2022-09-13T03:40:55;10.17;;;6.17;;
13560;SDS011;6852;51.686;5.314;2022-09-13T03:43:35;10.43;;;7.77;;
13560;SDS011;6852;51.686;5.314;2022-09-13T03:46:53;10.00;;;7.33;;
13560;SDS011;6852;51.686;5.314;2022-09-13T03:49:11;7.90;;;6.83;;
13560;SDS011;6852;51.686;5.314;2022-09-13T03:51:40;9.27;;;6.80;;
13560;SDS011;6852;51.686;5.314;2022-09-13T03:54:13;10.03;;;6.97;;
13560;SDS011;6852;51.686;5.314;2022-09-13T03:59:53;8.07;;;7.20;;
13560;SDS011;6852;51.686;5.314;2022-09-13T04:02:21;8.70;;;6.60;;
13560;SDS011;6852;51.686;5.314;2022-09-13T04:04:50;9.17;;;7.03;;
13560;SDS011;6852;51.686;5.314;2022-09-13T04:07:17;11.97;;;7.43;;
13560;SDS011;6852;51.686;5.314;2022-09-13T04:09:46;7.77;;;6.70;;
13560;SDS011;6852;51.686;5.314;2022-09-13T04:12:13;10.60;;;7.43;;
13560;SDS011;6852;51.686;5.314;2022-09-13T04:14:41;11.40;;;7.73;;
13560;SDS011;6852;51.686;5.314;2022-09-13T04:17:09;8.37;;;6.93;;
13560;SDS011;6852;51.686;5.314;2022-09-13T04:19:37;8.07;;;6.67;;
13560;SDS011;6852;51.686;5.314;2022-09-13T04:22:04;9.53;;;7.47;;
13560;SDS011;6852;51.686;5.314;2022-09-13T04:24:31;8.60;;;7.70;;
13560;SDS011;6852;51.686;5.314;2022-09-13T04:26:58;8.37;;;7.50;;
13560;SDS011;6852;51.686;5.314;2022-09-13T04:29:27;9.60;;;7.30;;
13560;SDS011;6852;51.686;5.314;2022-09-13T04:31:54;9.53;;;7.63;;
13560;SDS011;6852;51.686;5.314;2022-09-13T04:34:21;10.60;;;8.00;;
13560;SDS011;6852;51.686;5.314;2022-09-13T04:36:49;9.97;;;7.90;;
13560;SDS011;6852;51.686;5.314;2022-09-13T04:39:20;12.93;;;7.80;;
13560;SDS011;6852;51.686;5.314;2022-09-13T04:41:48;9.77;;;7.67;;
13560;SDS011;6852;51.686;5.314;2022-09-13T04:44:17;8.60;;;7.80;;
13560;SDS011;6852;51.686;5.314;2022-09-13T04:46:47;14.13;;;8.17;;
13560;SDS011;6852;51.686;5.314;2022-09-13T04:49:16;11.00;;;8.17;;
13560;SDS011;6852;51.686;5.314;2022-09-13T04:51:43;9.53;;;7.63;;
13560;SDS011;6852;51.686;5.314;2022-09-13T04:54:10;10.80;;;8.03;;
13560;SDS011;6852;51.686;5.314;2022-09-13T04:56:41;10.43;;;8.40;;
13560;SDS011;6852;51.686;5.314;2022-09-13T04:59:09;12.07;;;7.33;;
13560;SDS011;6852;51.686;5.314;2022-09-13T05:01:37;9.67;;;7.97;;
13560;SDS011;6852;51.686;5.314;2022-09-13T05:04:04;10.00;;;8.13;;
13560;SDS011;6852;51.686;5.314;2022-09-13T05:06:32;11.17;;;8.30;;
13560;SDS011;6852;51.686;5.314;2022-09-13T05:08:59;11.97;;;8.27;;
13560;SDS011;6852;51.686;5.314;2022-09-13T05:11:27;9.30;;;7.93;;
13560;SDS011;6852;51.686;5.314;2022-09-13T05:13:55;11.97;;;8.00;;
13560;SDS011;6852;51.686;5.314;2022-09-13T05:16:25;15.77;;;9.53;;
13560;SDS011;6852;51.686;5.314;2022-09-13T05:18:54;11.17;;;7.83;;
13560;SDS011;6852;51.686;5.314;2022-09-13T05:21:21;9.20;;;8.10;;
13560;SDS011;6852;51.686;5.314;2022-09-13T05:23:49;11.23;;;8.70;;
13560;SDS011;6852;51.686;5.314;2022-09-13T05:26:17;9.43;;;8.53;;
13560;SDS011;6852;51.686;5.314;2022-09-13T05:28:44;11.37;;;8.67;;
13560;SDS011;6852;51.686;5.314;2022-09-13T05:33:41;12.30;;;8.33;;
13560;SDS011;6852;51.686;5.314;2022-09-13T05:36:09;9.47;;;8.43;;
13560;SDS011;6852;51.686;5.314;2022-09-13T05:38:36;10.47;;;8.77;;
13560;SDS011;6852;51.686;5.314;2022-09-13T05:41:03;11.80;;;9.13;;
13560;SDS011;6852;51.686;5.314;2022-09-13T05:43:32;10.03;;;8.83;;
13560;SDS011;6852;51.686;5.314;2022-09-13T05:48:27;11.33;;;8.83;;
13560;SDS011;6852;51.686;5.314;2022-09-13T05:50:55;10.73;;;9.47;;
13560;SDS011;6852;51.686;5.314;2022-09-13T05:53:23;11.47;;;8.70;;
13560;SDS011;6852;51.686;5.314;2022-09-13T05:55:50;9.73;;;8.37;;
13560;SDS011;6852;51.686;5.314;2022-09-13T05:58:17;11.23;;;9.13;;
13560;SDS011;6852;51.686;5.314;2022-09-13T06:00:44;10.07;;;8.20;;
13560;SDS011;6852;51.686;5.314;2022-09-13T06:03:11;11.83;;;8.37;;
13560;SDS011;6852;51.686;5.314;2022-09-13T06:05:37;11.00;;;8.60;;
13560;SDS011;6852;51.686;5.314;2022-09-13T06:08:04;9.93;;;8.13;;
13560;SDS011;6852;51.686;5.314;2022-09-13T06:10:31;11.43;;;9.27;;
13560;SDS011;6852;51.686;5.314;2022-09-13T06:12:58;12.50;;;9.53;;
13560;SDS011;6852;51.686;5.314;2022-09-13T06:15:25;9.30;;;8.10;;
13560;SDS011;6852;51.686;5.314;2022-09-13T06:17:52;12.83;;;8.53;;
13560;SDS011;6852;51.686;5.314;2022-09-13T06:20:19;11.47;;;8.57;;
13560;SDS011;6852;51.686;5.314;2022-09-13T06:22:47;14.27;;;8.50;;
13560;SDS011;6852;51.686;5.314;2022-09-13T06:25:14;13.47;;;9.23;;
13560;SDS011;6852;51.686;5.314;2022-09-13T06:27:41;11.27;;;9.10;;
13560;SDS011;6852;51.686;5.314;2022-09-13T06:30:08;14.20;;;9.07;;
13560;SDS011;6852;51.686;5.314;2022-09-13T06:32:38;14.07;;;8.63;;
13560;SDS011;6852;51.686;5.314;2022-09-13T06:35:05;12.20;;;9.33;;
13560;SDS011;6852;51.686;5.314;2022-09-13T06:37:32;12.13;;;8.70;;
13560;SDS011;6852;51.686;5.314;2022-09-13T06:39:59;13.77;;;9.03;;
13560;SDS011;6852;51.686;5.314;2022-09-13T06:42:26;14.97;;;8.67;;
13560;SDS011;6852;51.686;5.314;2022-09-13T06:44:53;12.97;;;9.67;;
13560;SDS011;6852;51.686;5.314;2022-09-13T06:47:20;14.60;;;10.17;;
13560;SDS011;6852;51.686;5.314;2022-09-13T06:49:46;11.73;;;7.77;;
13560;SDS011;6852;51.686;5.314;2022-09-13T06:52:13;15.67;;;10.27;;
13560;SDS011;6852;51.686;5.314;2022-09-13T06:54:40;14.33;;;10.87;;
13560;SDS011;6852;51.686;5.314;2022-09-13T06:57:07;12.33;;;11.03;;
13560;SDS011;6852;51.686;5.314;2022-09-13T06:59:34;12.27;;;9.77;;
13560;SDS011;6852;51.686;5.314;2022-09-13T07:02:01;16.07;;;10.20;;
13560;SDS011;6852;51.686;5.314;2022-09-13T07:04:28;12.63;;;9.97;;
13560;SDS011;6852;51.686;5.314;2022-09-13T07:06:57;18.33;;;11.80;;
13560;SDS011;6852;51.686;5.314;2022-09-13T07:09:25;15.63;;;11.00;;
13560;SDS011;6852;51.686;5.314;2022-09-13T07:11:53;13.93;;;11.17;;
13560;SDS011;6852;51.686;5.314;2022-09-13T07:14:24;12.47;;;10.37;;
13560;SDS011;6852;51.686;5.314;2022-09-13T07:16:53;15.20;;;11.40;;
13560;SDS011;6852;51.686;5.314;2022-09-13T07:19:22;17.27;;;12.43;;
13560;SDS011;6852;51.686;5.314;2022-09-13T07:21:54;15.90;;;11.73;;
13560;SDS011;6852;51.686;5.314;2022-09-13T07:24:22;12.93;;;10.53;;
13560;SDS011;6852;51.686;5.314;2022-09-13T07:26:49;16.60;;;12.83;;
13560;SDS011;6852;51.686;5.314;2022-09-13T07:29:17;16.63;;;11.67;;
13560;SDS011;6852;51.686;5.314;2022-09-13T07:31:51;15.73;;;11.83;;
13560;SDS011;6852;51.686;5.314;2022-09-13T07:34:21;16.63;;;13.70;;
13560;SDS011;6852;51.686;5.314;2022-09-13T07:36:49;16.53;;;12.93;;
13560;SDS011;6852;51.686;5.314;2022-09-13T07:39:16;16.17;;;11.97;;
13560;SDS011;6852;51.686;5.314;2022-09-13T07:41:48;15.63;;;12.87;;
13560;SDS011;6852;51.686;5.314;2022-09-13T07:44:16;24.07;;;14.63;;
13560;SDS011;6852;51.686;5.314;2022-09-13T07:46:43;25.57;;;17.33;;
13560;SDS011;6852;51.686;5.314;2022-09-13T07:49:10;23.47;;;17.80;;
13560;SDS011;6852;51.686;5.314;2022-09-13T07:51:39;23.17;;;17.77;;
13560;SDS011;6852;51.686;5.314;2022-09-13T07:54:12;22.63;;;17.57;;
13560;SDS011;6852;51.686;5.314;2022-09-13T07:56:40;24.40;;;17.40;;
13560;SDS011;6852;51.686;5.314;2022-09-13T07:59:11;22.00;;;17.83;;
13560;SDS011;6852;51.686;5.314;2022-09-13T08:01:40;26.40;;;18.00;;
13560;SDS011;6852;51.686;5.314;2022-09-13T08:04:09;24.23;;;16.73;;
13560;SDS011;6852;51.686;5.314;2022-09-13T08:06:38;24.87;;;17.63;;
13560;SDS011;6852;51.686;5.314;2022-09-13T08:09:06;22.20;;;15.83;;
13560;SDS011;6852;51.686;5.314;2022-09-13T08:11:38;25.27;;;14.97;;
13560;SDS011;6852;51.686;5.314;2022-09-13T08:14:14;23.47;;;16.17;;
13560;SDS011;6852;51.686;5.314;2022-09-13T08:16:43;23.63;;;16.97;;
13560;SDS011;6852;51.686;5.314;2022-09-13T08:19:16;22.83;;;15.80;;
13560;SDS011;6852;51.686;5.314;2022-09-13T08:21:44;21.83;;;16.80;;
13560;SDS011;6852;51.686;5.314;2022-09-13T08:24:12;23.60;;;15.80;;
13560;SDS011;6852;51.686;5.314;2022-09-13T08:26:42;21.97;;;15.87;;
13560;SDS011;6852;51.686;5.314;2022-09-13T08:29:09;22.80;;;15.70;;
13560;SDS011;6852;51.686;5.314;2022-09-13T08:31:37;21.20;;;14.97;;
13560;SDS011;6852;51.686;5.314;2022-09-13T08:34:05;17.90;;;13.47;;
13560;SDS011;6852;51.686;5.314;2022-09-13T08:36:35;23.73;;;15.37;;
13560;SDS011;6852;51.686;5.314;2022-09-13T08:39:02;19.80;;;15.53;;
13560;SDS011;6852;51.686;5.314;2022-09-13T08:46:48;18.07;;;14.23;;
13560;SDS011;6852;51.686;5.314;2022-09-13T08:51:52;17.70;;;13.50;;
13560;SDS011;6852;51.686;5.314;2022-09-13T08:54:23;15.40;;;12.27;;
13560;SDS011;6852;51.686;5.314;2022-09-13T09:05:09;14.33;;;10.43;;
13560;SDS011;6852;51.686;5.314;2022-09-13T09:07:48;12.73;;;9.77;;
13560;SDS011;6852;51.686;5.314;2022-09-13T09:10:30;13.47;;;8.47;;
13560;SDS011;6852;51.686;5.314;2022-09-13T09:12:58;12.50;;;9.50;;
13560;SDS011;6852;51.686;5.314;2022-09-13T09:15:56;13.13;;;8.57;;
13560;SDS011;6852;51.686;5.314;2022-09-13T09:18:32;9.17;;;7.13;;
13560;SDS011;6852;51.686;5.314;2022-09-13T09:21:10;12.23;;;7.07;;
13560;SDS011;6852;51.686;5.314;2022-09-13T09:26:20;9.30;;;6.10;;
13560;SDS011;6852;51.686;5.314;2022-09-13T09:28:49;7.20;;;6.07;;
13560;SDS011;6852;51.686;5.314;2022-09-13T09:36:56;8.13;;;6.40;;
13560;SDS011;6852;51.686;5.314;2022-09-13T09:39:33;6.83;;;6.13;;
13560;SDS011;6852;51.686;5.314;2022-09-13T09:42:14;7.87;;;6.17;;
13560;SDS011;6852;51.686;5.314;2022-09-13T09:44:51;7.27;;;6.47;;
13560;SDS011;6852;51.686;5.314;2022-09-13T09:47:27;8.17;;;6.27;;
13560;SDS011;6852;51.686;5.314;2022-09-13T09:50:05;7.80;;;5.40;;
13560;SDS011;6852;51.686;5.314;2022-09-13T09:52:44;7.13;;;5.83;;
13560;SDS011;6852;51.686;5.314;2022-09-13T09:55:17;6.73;;;6.03;;
13560;SDS011;6852;51.686;5.314;2022-09-13T09:57:49;6.37;;;5.70;;
13560;SDS011;6852;51.686;5.314;2022-09-13T10:00:25;6.93;;;5.20;;
13560;SDS011;6852;51.686;5.314;2022-09-13T10:03:00;8.20;;;5.57;;
13560;SDS011;6852;51.686;5.314;2022-09-13T10:05:30;7.63;;;5.93;;
13560;SDS011;6852;51.686;5.314;2022-09-13T10:08:02;5.83;;;4.83;;
13560;SDS011;6852;51.686;5.314;2022-09-13T10:10:36;8.27;;;5.60;;
13560;SDS011;6852;51.686;5.314;2022-09-13T10:13:14;4.93;;;4.43;;
13560;SDS011;6852;51.686;5.314;2022-09-13T10:18:50;7.60;;;5.60;;
13560;SDS011;6852;51.686;5.314;2022-09-13T10:23:47;6.07;;;4.60;;
13560;SDS011;6852;51.686;5.314;2022-09-13T10:26:21;8.03;;;5.33;;
13560;SDS011;6852;51.686;5.314;2022-09-13T10:31:43;5.93;;;4.50;;
13560;SDS011;6852;51.686;5.314;2022-09-13T10:34:26;7.30;;;4.67;;
13560;SDS011;6852;51.686;5.314;2022-09-13T10:37:13;6.43;;;4.20;;
13560;SDS011;6852;51.686;5.314;2022-09-13T10:39:52;7.77;;;5.10;;
13560;SDS011;6852;51.686;5.314;2022-09-13T10:42:23;3.10;;;2.60;;
13560;SDS011;6852;51.686;5.314;2022-09-13T10:44:56;3.10;;;2.00;;
13560;SDS011;6852;51.686;5.314;2022-09-13T10:49:57;3.10;;;1.80;;
13560;SDS011;6852;51.686;5.314;2022-09-13T10:52:42;1.73;;;1.40;;
13560;SDS011;6852;51.686;5.314;2022-09-13T11:06:16;4.10;;;3.60;;
13560;SDS011;6852;51.686;5.314;2022-09-13T11:17:56;4.77;;;3.83;;
13560;SDS011;6852;51.686;5.314;2022-09-13T11:20:31;5.33;;;4.50;;
13560;SDS011;6852;51.686;5.314;2022-09-13T11:23:47;7.73;;;6.33;;
13560;SDS011;6852;51.686;5.314;2022-09-13T11:37:44;5.87;;;3.97;;
13560;SDS011;6852;51.686;5.314;2022-09-13T11:40:41;7.07;;;3.50;;
13560;SDS011;6852;51.686;5.314;2022-09-13T11:43:18;4.07;;;3.33;;
13560;SDS011;6852;51.686;5.314;2022-09-13T11:51:14;4.27;;;2.90;;
13560;SDS011;6852;51.686;5.314;2022-09-13T11:59:17;3.93;;;3.10;;
13560;SDS011;6852;51.686;5.314;2022-09-13T12:01:54;5.17;;;2.97;;
13560;SDS011;6852;51.686;5.314;2022-09-13T12:04:26;2.90;;;2.63;;
13560;SDS011;6852;51.686;5.314;2022-09-13T12:07:42;3.90;;;2.53;;
13560;SDS011;6852;51.686;5.314;2022-09-13T12:10:16;3.60;;;2.83;;
13560;SDS011;6852;51.686;5.314;2022-09-13T12:12:52;4.13;;;2.07;;
13560;SDS011;6852;51.686;5.314;2022-09-13T12:15:23;3.87;;;2.33;;
13560;SDS011;6852;51.686;5.314;2022-09-13T12:20:49;5.03;;;2.30;;
13560;SDS011;6852;51.686;5.314;2022-09-13T12:23:21;3.20;;;1.70;;
13560;SDS011;6852;51.686;5.314;2022-09-13T12:26:12;2.27;;;1.70;;
13560;SDS011;6852;51.686;5.314;2022-09-13T12:28:47;2.37;;;1.70;;
13560;SDS011;6852;51.686;5.314;2022-09-13T12:31:29;2.63;;;1.80;;
13560;SDS011;6852;51.686;5.314;2022-09-13T12:33:57;2.87;;;1.90;;
13560;SDS011;6852;51.686;5.314;2022-09-13T12:53:13;2.47;;;1.30;;
13560;SDS011;6852;51.686;5.314;2022-09-13T12:59:09;3.50;;;1.43;;
13560;SDS011;6852;51.686;5.314;2022-09-13T13:02:25;1.67;;;1.10;;
13560;SDS011;6852;51.686;5.314;2022-09-13T13:07:53;2.55;;;1.48;;
13560;SDS011;6852;51.686;5.314;2022-09-13T13:10:25;2.17;;;1.30;;
13560;SDS011;6852;51.686;5.314;2022-09-13T13:12:56;2.60;;;1.20;;
13560;SDS011;6852;51.686;5.314;2022-09-13T13:33:51;1.17;;;0.87;;
13560;SDS011;6852;51.686;5.314;2022-09-13T13:38:49;1.70;;;0.73;;
13560;SDS011;6852;51.686;5.314;2022-09-13T13:44:54;0.80;;;0.80;;
13560;SDS011;6852;51.686;5.314;2022-09-13T13:46:51;3.30;;;1.00;;
13560;SDS011;6852;51.686;5.314;2022-09-13T14:00:22;2.57;;;0.80;;
13560;SDS011;6852;51.686;5.314;2022-09-13T14:24:50;1.37;;;1.10;;
13560;SDS011;6852;51.686;5.314;2022-09-13T14:27:28;1.97;;;1.67;;
13560;SDS011;6852;51.686;5.314;2022-09-13T14:30:00;3.23;;;1.63;;
13560;SDS011;6852;51.686;5.314;2022-09-13T14:32:41;1.63;;;1.20;;
13560;SDS011;6852;51.686;5.314;2022-09-13T14:38:15;1.63;;;1.20;;
13560;SDS011;6852;51.686;5.314;2022-09-13T14:40:49;1.37;;;1.27;;
13560;SDS011;6852;51.686;5.314;2022-09-13T14:43:21;1.90;;;1.47;;
13560;SDS011;6852;51.686;5.314;2022-09-13T14:46:13;1.70;;;1.50;;
13560;SDS011;6852;51.686;5.314;2022-09-13T14:49:02;1.90;;;1.40;;
13560;SDS011;6852;51.686;5.314;2022-09-13T14:54:11;1.80;;;1.07;;
13560;SDS011;6852;51.686;5.314;2022-09-13T14:56:57;3.83;;;1.20;;
13560;SDS011;6852;51.686;5.314;2022-09-13T15:01:53;1.77;;;1.30;;
13560;SDS011;6852;51.686;5.314;2022-09-13T15:04:22;1.83;;;1.53;;
13560;SDS011;6852;51.686;5.314;2022-09-13T15:07:06;4.33;;;1.40;;
13560;SDS011;6852;51.686;5.314;2022-09-13T15:09:35;1.43;;;1.20;;
13560;SDS011;6852;51.686;5.314;2022-09-13T15:12:03;1.63;;;1.43;;
13560;SDS011;6852;51.686;5.314;2022-09-13T15:14:44;1.30;;;1.10;;
13560;SDS011;6852;51.686;5.314;2022-09-13T15:17:11;2.87;;;1.47;;
13560;SDS011;6852;51.686;5.314;2022-09-13T15:19:47;1.57;;;1.47;;
13560;SDS011;6852;51.686;5.314;2022-09-13T15:22:26;1.60;;;1.33;;
13560;SDS011;6852;51.686;5.314;2022-09-13T15:24:57;2.27;;;1.47;;
13560;SDS011;6852;51.686;5.314;2022-09-13T15:30:24;3.03;;;1.83;;
13560;SDS011;6852;51.686;5.314;2022-09-13T15:41:38;1.60;;;1.50;;
13560;SDS011;6852;51.686;5.314;2022-09-13T15:44:07;1.50;;;1.27;;
13560;SDS011;6852;51.686;5.314;2022-09-13T15:46:51;4.40;;;1.83;;
13560;SDS011;6852;51.686;5.314;2022-09-13T15:49:20;4.37;;;1.00;;
13560;SDS011;6852;51.686;5.314;2022-09-13T15:51:59;1.87;;;1.10;;
13560;SDS011;6852;51.686;5.314;2022-09-13T15:54:35;1.77;;;0.90;;
13560;SDS011;6852;51.686;5.314;2022-09-13T15:57:08;2.77;;;1.20;;
13560;SDS011;6852;51.686;5.314;2022-09-13T15:59:41;2.40;;;1.00;;
13560;SDS011;6852;51.686;5.314;2022-09-13T16:02:14;2.47;;;1.30;;
13560;SDS011;6852;51.686;5.314;2022-09-13T16:04:46;2.67;;;1.30;;
13560;SDS011;6852;51.686;5.314;2022-09-13T16:07:14;3.60;;;1.53;;
13560;SDS011;6852;51.686;5.314;2022-09-13T16:09:42;4.97;;;1.50;;
13560;SDS011;6852;51.686;5.314;2022-09-13T16:12:10;2.73;;;1.53;;
13560;SDS011;6852;51.686;5.314;2022-09-13T16:14:37;2.13;;;1.10;;
13560;SDS011;6852;51.686;5.314;2022-09-13T16:17:26;2.70;;;1.00;;
13560;SDS011;6852;51.686;5.314;2022-09-13T16:19:52;1.90;;;1.30;;
13560;SDS011;6852;51.686;5.314;2022-09-13T16:22:20;3.17;;;1.20;;
13560;SDS011;6852;51.686;5.314;2022-09-13T16:24:47;3.23;;;1.40;;
13560;SDS011;6852;51.686;5.314;2022-09-13T16:27:15;3.27;;;1.30;;
13560;SDS011;6852;51.686;5.314;2022-09-13T16:29:43;2.67;;;1.00;;
13560;SDS011;6852;51.686;5.314;2022-09-13T16:32:10;3.60;;;0.93;;
13560;SDS011;6852;51.686;5.314;2022-09-13T16:34:37;2.50;;;1.00;;
13560;SDS011;6852;51.686;5.314;2022-09-13T16:37:04;2.83;;;1.10;;
13560;SDS011;6852;51.686;5.314;2022-09-13T16:39:31;1.83;;;1.17;;
13560;SDS011;6852;51.686;5.314;2022-09-13T16:41:58;3.07;;;1.00;;
13560;SDS011;6852;51.686;5.314;2022-09-13T16:44:25;3.20;;;0.97;;
13560;SDS011;6852;51.686;5.314;2022-09-13T16:46:51;2.67;;;1.00;;
13560;SDS011;6852;51.686;5.314;2022-09-13T16:49:18;1.30;;;0.90;;
13560;SDS011;6852;51.686;5.314;2022-09-13T16:51:45;2.13;;;1.20;;
13560;SDS011;6852;51.686;5.314;2022-09-13T16:54:12;4.43;;;1.33;;
13560;SDS011;6852;51.686;5.314;2022-09-13T16:56:39;3.33;;;1.43;;
13560;SDS011;6852;51.686;5.314;2022-09-13T16:59:06;2.43;;;1.40;;
13560;SDS011;6852;51.686;5.314;2022-09-13T17:01:33;3.63;;;1.23;;
13560;SDS011;6852;51.686;5.314;2022-09-13T17:04:00;2.53;;;1.37;;
13560;SDS011;6852;51.686;5.314;2022-09-13T17:06:27;1.67;;;1.23;;
13560;SDS011;6852;51.686;5.314;2022-09-13T17:08:55;2.20;;;1.03;;
13560;SDS011;6852;51.686;5.314;2022-09-13T17:11:26;3.00;;;1.00;;
13560;SDS011;6852;51.686;5.314;2022-09-13T17:13:54;3.37;;;1.10;;
13560;SDS011;6852;51.686;5.314;2022-09-13T17:16:29;3.37;;;1.30;;
13560;SDS011;6852;51.686;5.314;2022-09-13T17:19:03;3.23;;;1.10;;
13560;SDS011;6852;51.686;5.314;2022-09-13T17:21:32;5.67;;;1.30;;
13560;SDS011;6852;51.686;5.314;2022-09-13T17:24:00;2.37;;;1.00;;
13560;SDS011;6852;51.686;5.314;2022-09-13T17:26:27;3.27;;;1.10;;
13560;SDS011;6852;51.686;5.314;2022-09-13T17:28:54;2.40;;;0.93;;
13560;SDS011;6852;51.686;5.314;2022-09-13T17:31:21;1.03;;;0.80;;
13560;SDS011;6852;51.686;5.314;2022-09-13T17:33:48;3.77;;;1.10;;
13560;SDS011;6852;51.686;5.314;2022-09-13T17:36:15;2.87;;;0.90;;
13560;SDS011;6852;51.686;5.314;2022-09-13T17:38:42;1.67;;;0.80;;
13560;SDS011;6852;51.686;5.314;2022-09-13T17:41:11;8.40;;;1.23;;
13560;SDS011;6852;51.686;5.314;2022-09-13T17:43:39;2.30;;;0.60;;
13560;SDS011;6852;51.686;5.314;2022-09-13T17:46:12;2.07;;;1.03;;
13560;SDS011;6852;51.686;5.314;2022-09-13T17:48:43;2.70;;;1.27;;
13560;SDS011;6852;51.686;5.314;2022-09-13T17:51:11;1.97;;;0.90;;
13560;SDS011;6852;51.686;5.314;2022-09-13T17:53:43;4.37;;;1.00;;
13560;SDS011;6852;51.686;5.314;2022-09-13T17:56:21;2.90;;;0.90;;
13560;SDS011;6852;51.686;5.314;2022-09-13T17:58:55;2.20;;;1.10;;
13560;SDS011;6852;51.686;5.314;2022-09-13T18:01:23;3.23;;;1.10;;
13560;SDS011;6852;51.686;5.314;2022-09-13T18:03:52;2.30;;;0.67;;
13560;SDS011;6852;51.686;5.314;2022-09-13T18:06:19;1.90;;;0.80;;
13560;SDS011;6852;51.686;5.314;2022-09-13T18:08:46;4.90;;;1.27;;
13560;SDS011;6852;51.686;5.314;2022-09-13T18:11:13;3.10;;;0.90;;
13560;SDS011;6852;51.686;5.314;2022-09-13T18:13:47;3.43;;;0.73;;
13560;SDS011;6852;51.686;5.314;2022-09-13T18:16:18;3.73;;;0.80;;
13560;SDS011;6852;51.686;5.314;2022-09-13T18:18:47;2.80;;;0.80;;
13560;SDS011;6852;51.686;5.314;2022-09-13T18:21:16;5.03;;;0.90;;
13560;SDS011;6852;51.686;5.314;2022-09-13T18:23:47;2.47;;;0.90;;
13560;SDS011;6852;51.686;5.314;2022-09-13T18:26:16;3.53;;;0.80;;
13560;SDS011;6852;51.686;5.314;2022-09-13T18:28:46;3.60;;;0.87;;
13560;SDS011;6852;51.686;5.314;2022-09-13T18:31:18;3.47;;;0.83;;
13560;SDS011;6852;51.686;5.314;2022-09-13T18:33:44;2.67;;;0.70;;
13560;SDS011;6852;51.686;5.314;2022-09-13T18:36:14;4.83;;;0.90;;
13560;SDS011;6852;51.686;5.314;2022-09-13T18:38:43;1.70;;;1.27;;
13560;SDS011;6852;51.686;5.314;2022-09-13T18:41:13;2.73;;;0.97;;
13560;SDS011;6852;51.686;5.314;2022-09-13T18:43:42;6.13;;;1.00;;
13560;SDS011;6852;51.686;5.314;2022-09-13T18:46:11;3.83;;;1.10;;
13560;SDS011;6852;51.686;5.314;2022-09-13T18:48:42;4.53;;;0.87;;
13560;SDS011;6852;51.686;5.314;2022-09-13T18:51:11;2.03;;;0.90;;
13560;SDS011;6852;51.686;5.314;2022-09-13T18:53:40;4.67;;;0.80;;
13560;SDS011;6852;51.686;5.314;2022-09-13T18:56:08;2.30;;;0.90;;
13560;SDS011;6852;51.686;5.314;2022-09-13T18:58:38;2.33;;;0.90;;
13560;SDS011;6852;51.686;5.314;2022-09-13T19:01:08;1.17;;;0.60;;
13560;SDS011;6852;51.686;5.314;2022-09-13T19:03:38;1.83;;;0.80;;
13560;SDS011;6852;51.686;5.314;2022-09-13T19:06:13;3.47;;;0.70;;
13560;SDS011;6852;51.686;5.314;2022-09-13T19:08:46;4.80;;;0.90;;
13560;SDS011;6852;51.686;5.314;2022-09-13T19:11:14;3.87;;;0.90;;
13560;SDS011;6852;51.686;5.314;2022-09-13T19:14:02;6.63;;;0.93;;
13560;SDS011;6852;51.686;5.314;2022-09-13T19:16:30;4.00;;;1.10;;
13560;SDS011;6852;51.686;5.314;2022-09-13T19:18:58;3.33;;;0.70;;